Time;durP1;ratioP1;P1;durP2;ratioP2;P2;SDS_P1;SDS_P2;PMS_P1;PMS_P2;Temp;Humidity;BMP_temperature;BMP_pressure;BME280_temperature;BME280_humidity;BME280_pressure;Samples;Min_cycle;Max_cycle;Signal;HPM_P1;HPM_P2
2023/09/30 00:01:44;;;;;;;20.17;11.90;;;;;;;18.15;88.78;99750.13;4917101;29;20051;-76
2023/09/30 00:04:10;;;;;;;19.73;11.13;;;;;;;18.19;88.63;99751.34;4919795;29;20059;-75
2023/09/30 00:06:36;;;;;;;20.45;11.40;;;;;;;18.25;87.97;99752.41;4935799;29;20244;-75
2023/09/30 00:09:03;;;;;;;20.88;10.93;;;;;;;18.13;88.12;99745.97;4919927;29;20058;-77
2023/09/30 00:11:29;;;;;;;22.80;11.40;;;;;;;18.23;88.00;99749.09;4901350;29;20072;-77
2023/09/30 00:13:56;;;;;;;21.48;11.10;;;;;;;18.20;87.78;99746.81;4866963;29;20063;-77
2023/09/30 00:16:23;;;;;;;21.55;11.73;;;;;;;18.25;87.74;99753.22;4917968;29;20211;-77
2023/09/30 00:18:50;;;;;;;19.10;11.07;;;;;;;18.22;87.47;99750.13;4928476;28;20046;-77
2023/09/30 00:21:18;;;;;;;21.60;11.02;;;;;;;18.24;87.65;99748.06;4966176;28;20082;-76
2023/09/30 00:23:44;;;;;;;25.52;12.10;;;;;;;18.28;87.53;99747.44;4964591;28;20051;-76
2023/09/30 00:26:14;;;;;;;20.30;11.40;;;;;;;18.32;87.17;99747.88;4930086;28;20166;-76
2023/09/30 00:28:40;;;;;;;17.52;11.13;;;;;;;18.19;87.67;99747.81;4916560;29;20057;-77
2023/09/30 00:31:09;;;;;;;19.42;10.95;;;;;;;18.24;87.31;99740.81;4916850;29;20146;-76
2023/09/30 00:33:37;;;;;;;18.38;10.00;;;;;;;18.24;87.09;99745.38;4900932;29;20549;-76
2023/09/30 00:36:12;;;;;;;22.88;10.50;;;;;;;18.24;87.21;99742.66;4891928;29;20049;-77
2023/09/30 00:38:39;;;;;;;17.48;10.68;;;;;;;18.24;86.66;99739.97;4878942;29;20061;-77
2023/09/30 00:41:08;;;;;;;15.25;9.68;;;;;;;18.19;87.46;99732.53;4879729;29;20464;-78
2023/09/30 00:43:34;;;;;;;18.60;9.85;;;;;;;18.16;86.92;99741.00;4879897;29;20099;-80
2023/09/30 00:46:27;;;;;;;16.33;9.48;;;;;;;18.29;87.44;99738.34;4880397;29;20534;-79
2023/09/30 00:48:56;;;;;;;23.67;10.38;;;;;;;18.16;86.62;99735.63;4896330;29;20049;-76
2023/09/30 00:51:22;;;;;;;17.65;9.68;;;;;;;18.09;86.63;99740.19;4923745;29;20049;-79
2023/09/30 00:53:50;;;;;;;24.00;11.10;;;;;;;18.14;86.82;99735.00;4939019;28;20063;-78
2023/09/30 00:56:18;;;;;;;27.15;11.23;;;;;;;18.05;86.67;99733.53;4939074;29;20047;-77
2023/09/30 00:58:46;;;;;;;24.15;10.63;;;;;;;18.05;86.95;99728.16;4945110;28;20062;-77
2023/09/30 01:01:12;;;;;;;14.32;10.38;;;;;;;17.99;87.09;99725.47;4964010;28;20050;-77
2023/09/30 01:03:39;;;;;;;19.48;10.65;;;;;;;17.98;87.00;99729.19;4963976;28;20049;-77
2023/09/30 01:06:05;;;;;;;26.60;10.55;;;;;;;17.93;87.19;99724.41;4996113;28;20041;-77
2023/09/30 01:08:34;;;;;;;22.10;10.85;;;;;;;17.86;87.55;99726.28;4963581;28;20042;-76
2023/09/30 01:11:00;;;;;;;17.75;10.38;;;;;;;17.81;87.73;99723.34;4980527;28;20120;-77
2023/09/30 01:13:34;;;;;;;19.30;10.85;;;;;;;17.89;88.23;99731.25;4991324;28;20045;-77
2023/09/30 01:16:07;;;;;;;17.80;10.27;;;;;;;17.78;88.59;99718.38;5016560;28;20060;-77
2023/09/30 01:18:33;;;;;;;19.00;10.93;;;;;;;17.70;88.51;99726.63;5032879;28;20085;-77
2023/09/30 01:21:03;;;;;;;19.27;10.02;;;;;;;17.74;88.65;99721.69;5015689;28;20486;-76
2023/09/30 01:23:30;;;;;;;14.18;9.65;;;;;;;17.67;88.80;99729.72;5048658;28;20042;-76
2023/09/30 01:25:56;;;;;;;23.20;10.93;;;;;;;17.60;88.94;99717.28;5011785;28;20069;-76
2023/09/30 01:28:26;;;;;;;18.00;10.45;;;;;;;17.66;89.07;99720.00;4996166;28;20081;-76
2023/09/30 01:30:54;;;;;;;17.98;11.00;;;;;;;17.63;88.94;99720.41;4996162;28;20088;-76
2023/09/30 01:33:23;;;;;;;21.50;10.73;;;;;;;17.60;89.14;99722.66;4980619;28;20464;-76
2023/09/30 01:35:54;;;;;;;;;;;;;;;17.64;89.21;99723.91;4964799;28;20058;-77
2023/09/30 01:38:23;;;;;;;;;;;;;;;17.68;89.15;99723.28;4992197;28;19936;-76
2023/09/30 01:40:49;;;;;;;21.42;10.43;;;;;;;17.48;89.70;99719.69;4921982;29;19926;-76
2023/09/30 01:43:16;;;;;;;17.55;10.32;;;;;;;17.45;89.44;99717.41;4918267;29;20109;-76
2023/09/30 01:45:42;;;;;;;25.45;11.13;;;;;;;17.54;90.14;99716.25;4934124;29;20066;-76
2023/09/30 01:48:10;;;;;;;21.75;11.68;;;;;;;17.57;89.61;99720.38;4937188;29;20480;-75
2023/09/30 01:50:38;;;;;;;17.55;10.80;;;;;;;17.50;89.86;99724.88;4938560;29;20509;-77
2023/09/30 01:53:09;;;;;;;20.30;10.60;;;;;;;17.49;89.54;99723.22;4906941;29;20061;-77
2023/09/30 01:55:37;;;;;;;16.05;10.50;;;;;;;17.49;90.04;99717.84;4939080;28;20141;-78
2023/09/30 01:58:04;;;;;;;20.52;10.77;;;;;;;17.48;90.38;99716.22;4937647;29;20070;-78
2023/09/30 02:00:35;;;;;;;25.02;11.23;;;;;;;17.49;89.67;99723.22;4953102;28;20043;-76
2023/09/30 02:03:03;;;;;;;21.55;10.25;;;;;;;17.48;90.02;99719.69;4962908;28;20504;-76
2023/09/30 02:05:36;;;;;;;15.95;10.23;;;;;;;17.42;89.93;99719.66;4975389;28;20107;-77
2023/09/30 02:08:08;;;;;;;21.08;10.60;;;;;;;17.40;90.61;99717.19;4955907;28;20054;-78
2023/09/30 02:10:41;;;;;;;19.45;10.60;;;;;;;17.47;90.36;99717.22;4959071;28;20060;-77
2023/09/30 02:13:08;;;;;;;15.05;9.98;;;;;;;17.45;90.23;99719.28;4974524;28;20061;-77
2023/09/30 02:15:40;;;;;;;22.77;10.43;;;;;;;17.58;90.21;99716.66;4971348;28;20477;-74
2023/09/30 02:18:17;;;;;;;16.85;10.80;;;;;;;17.54;89.89;99723.47;4955330;28;20193;-76
2023/09/30 02:20:44;;;;;;;15.85;10.10;;;;;;;17.52;89.84;99712.91;4955980;28;20055;-76
2023/09/30 02:23:16;;;;;;;19.70;10.83;;;;;;;17.51;90.00;99715.81;4917832;29;20410;-76
2023/09/30 02:25:45;;;;;;;16.25;10.52;;;;;;;17.50;90.33;99712.28;4917500;29;20240;-76
2023/09/30 02:28:14;;;;;;;19.38;10.57;;;;;;;17.57;90.09;99712.31;4933072;29;20109;-76
2023/09/30 02:30:43;;;;;;;18.05;10.07;;;;;;;17.49;90.28;99707.94;4894899;29;20087;-76
2023/09/30 02:33:11;;;;;;;19.52;10.43;;;;;;;17.49;90.17;99707.94;4876461;29;20063;-76
2023/09/30 02:35:46;;;;;;;18.67;10.43;;;;;;;17.59;89.88;99713.75;4860736;29;20049;-76
2023/09/30 02:38:17;;;;;;;20.67;10.55;;;;;;;17.50;90.06;99714.13;4860805;29;20059;-76
2023/09/30 02:40:46;;;;;;;20.45;10.43;;;;;;;17.55;89.79;99717.06;4879511;29;20099;-76
2023/09/30 02:43:16;;;;;;;20.23;10.80;;;;;;;17.49;89.80;99707.94;4879861;29;20053;-75
2023/09/30 02:45:43;;;;;;;25.08;11.07;;;;;;;17.49;89.96;99709.78;4876070;29;20348;-75
2023/09/30 02:48:13;;;;;;;18.58;10.00;;;;;;;17.47;89.62;99704.63;4842454;29;20145;-76
2023/09/30 02:50:45;;;;;;;20.10;10.15;;;;;;;17.54;90.12;99705.50;4886422;29;20064;-77
2023/09/30 02:53:13;;;;;;;15.27;10.15;;;;;;;17.45;89.78;99700.50;4891762;29;20045;-76
2023/09/30 02:55:42;;;;;;;14.98;9.90;;;;;;;17.40;89.64;99697.53;4845200;29;20057;-76
2023/09/30 02:58:12;;;;;;;20.55;10.35;;;;;;;17.36;89.53;99698.97;4891831;29;20062;-77
2023/09/30 03:00:38;;;;;;;14.77;9.88;;;;;;;17.36;89.70;99697.09;4926356;29;20051;-76
2023/09/30 03:03:05;;;;;;;18.10;10.10;;;;;;;17.28;89.77;99694.63;4967755;28;20153;-75
2023/09/30 03:05:33;;;;;;;15.27;9.48;;;;;;;17.21;90.34;99698.25;4967052;28;20047;-75
2023/09/30 03:08:01;;;;;;;21.10;10.35;;;;;;;17.16;90.72;99692.69;4918346;28;20051;-75
2023/09/30 03:10:27;;;;;;;20.63;10.18;;;;;;;17.19;90.91;99703.84;4938804;28;20466;-76
2023/09/30 03:12:54;;;;;;;16.60;10.02;;;;;;;17.12;90.91;99702.16;4938860;28;20054;-76
2023/09/30 03:15:21;;;;;;;19.25;9.82;;;;;;;17.04;92.03;99694.25;4938721;28;20058;-76
2023/09/30 03:17:50;;;;;;;22.23;10.57;;;;;;;17.21;91.74;99696.41;4954815;28;20077;-76
2023/09/30 03:20:19;;;;;;;18.02;10.48;;;;;;;17.25;90.83;99689.63;4954375;28;20058;-76
2023/09/30 03:22:46;;;;;;;19.80;10.50;;;;;;;17.23;90.86;99697.06;4954249;28;20074;-76
2023/09/30 03:25:17;;;;;;;17.77;9.65;;;;;;;17.24;91.30;99693.34;4954757;28;20077;-76
2023/09/30 03:27:49;;;;;;;21.00;10.93;;;;;;;17.17;91.50;99697.03;4939054;28;20050;-76
2023/09/30 03:30:17;;;;;;;22.40;11.50;;;;;;;17.15;91.65;99701.75;4952654;28;20146;-77
2023/09/30 03:32:45;;;;;;;23.17;10.55;;;;;;;17.13;92.41;99693.91;4918895;29;20482;-76
2023/09/30 03:35:16;;;;;;;14.88;9.77;;;;;;;17.00;92.18;99701.06;4904569;29;20143;-76
2023/09/30 03:37:44;;;;;;;17.63;9.60;;;;;;;17.01;92.82;99694.66;4905462;29;20642;-75
2023/09/30 03:40:18;;;;;;;20.02;10.98;;;;;;;16.90;93.55;99704.09;4904082;29;20127;-75
2023/09/30 03:42:49;;;;;;;18.30;10.35;;;;;;;16.88;93.90;99706.97;4915636;29;20059;-75
2023/09/30 03:45:16;;;;;;;17.88;10.82;;;;;;;16.72;94.67;99699.22;4917592;28;20054;-75
2023/09/30 03:47:43;;;;;;;26.05;11.07;;;;;;;16.94;94.50;99701.84;4942330;28;20058;-75
2023/09/30 03:50:14;;;;;;;25.00;11.88;;;;;;;16.81;94.62;99698.06;4926410;28;20123;-75
2023/09/30 03:52:45;;;;;;;28.15;12.63;;;;;;;16.90;94.57;99706.75;4900091;29;20063;-74
2023/09/30 03:55:13;;;;;;;25.00;13.00;;;;;;;16.93;94.24;99702.88;4882946;29;20468;-75
2023/09/30 03:57:41;;;;;;;22.38;12.25;;;;;;;16.88;94.53;99706.97;4866744;29;20143;-75
2023/09/30 04:00:16;;;;;;;18.90;11.82;;;;;;;17.01;94.47;99702.69;4868470;29;20076;-76
2023/09/30 04:02:42;;;;;;;21.83;10.88;;;;;;;17.04;94.16;99694.25;4905681;29;20052;-76
2023/09/30 04:05:12;;;;;;;17.17;10.15;;;;;;;17.11;93.96;99692.44;4920032;29;20099;-74
2023/09/30 04:07:44;;;;;;;18.45;10.30;;;;;;;17.23;93.22;99696.22;4888247;29;20062;-77
2023/09/30 04:10:14;;;;;;;19.50;10.20;;;;;;;17.21;92.71;99693.75;4955309;28;20533;-65
2023/09/30 04:12:40;;;;;;;23.77;11.30;;;;;;;17.25;92.67;99696.84;4958054;28;20082;-65
2023/09/30 04:15:13;;;;;;;16.70;11.05;;;;;;;17.27;92.76;99702.84;4957893;28;20489;-64
2023/09/30 04:17:39;;;;;;;23.17;12.48;;;;;;;17.12;93.39;99705.66;4975490;28;20100;-64
2023/09/30 04:20:09;;;;;;;21.52;11.63;;;;;;;17.13;93.30;99693.09;4993369;28;20112;-64
2023/09/30 04:22:35;;;;;;;22.95;12.25;;;;;;;17.02;93.23;99704.38;4978529;28;20054;-65
2023/09/30 04:25:00;;;;;;;20.73;11.63;;;;;;;17.11;93.01;99701.34;4964569;28;20454;-64
2023/09/30 04:27:27;;;;;;;24.77;12.90;;;;;;;17.07;92.88;99697.38;4980163;28;20115;-65
2023/09/30 04:29:53;;;;;;;18.58;11.88;;;;;;;17.12;92.98;99694.09;4996505;28;20135;-64
2023/09/30 04:32:19;;;;;;;21.88;11.93;;;;;;;17.05;92.99;99701.28;4964105;28;20049;-65
2023/09/30 04:34:46;;;;;;;17.35;11.15;;;;;;;17.04;93.43;99705.81;5012658;28;20227;-65
2023/09/30 04:37:13;;;;;;;23.48;13.27;;;;;;;17.01;93.31;99700.84;5012694;28;20076;-67
2023/09/30 04:39:39;;;;;;;18.88;12.38;;;;;;;16.97;93.72;99696.06;4980164;28;20495;-65
2023/09/30 04:42:05;;;;;;;32.63;12.80;;;;;;;16.95;94.03;99696.28;5012128;28;20053;-65
2023/09/30 04:44:31;;;;;;;25.88;11.80;;;;;;;16.98;93.92;99705.78;5020995;28;20391;-69
2023/09/30 04:46:58;;;;;;;22.83;13.05;;;;;;;17.07;93.86;99699.25;5054691;28;20068;-66
2023/09/30 04:49:24;;;;;;;22.30;12.77;;;;;;;17.06;93.78;99697.56;5053271;28;20072;-72
2023/09/30 04:51:50;;;;;;;22.45;13.35;;;;;;;17.07;93.22;99708.09;5036601;28;20127;-66
2023/09/30 04:54:16;;;;;;;26.08;13.63;;;;;;;17.04;93.17;99710.34;5052852;28;20041;-66
2023/09/30 04:56:42;;;;;;;24.77;13.25;;;;;;;17.04;93.07;99716.56;5052839;28;20037;-66
2023/09/30 04:59:08;;;;;;;27.73;13.52;;;;;;;17.06;92.98;99705.63;5036016;28;20106;-66
2023/09/30 05:01:35;;;;;;;21.92;13.75;;;;;;;17.04;93.41;99713.03;5036438;28;20044;-66
2023/09/30 05:04:00;;;;;;;22.25;13.00;;;;;;;17.03;93.29;99706.84;5053178;28;20053;-66
2023/09/30 05:06:26;;;;;;;23.23;13.90;;;;;;;17.05;93.23;99714.72;5053392;28;20118;-65
2023/09/30 05:08:52;;;;;;;22.55;13.32;;;;;;;17.05;93.27;99706.66;5052708;28;20045;-64
2023/09/30 05:11:18;;;;;;;23.55;14.07;;;;;;;17.09;93.04;99707.91;5035903;28;20037;-65
2023/09/30 05:13:45;;;;;;;30.10;14.10;;;;;;;17.11;93.10;99709.38;5053005;28;20047;-66
2023/09/30 05:16:13;;;;;;;25.27;14.13;;;;;;;17.29;92.91;99703.47;5053113;28;20045;-66
2023/09/30 05:18:39;;;;;;;24.40;13.57;;;;;;;17.32;92.24;99700.38;5036038;28;20041;-65
2023/09/30 05:21:06;;;;;;;29.30;13.73;;;;;;;17.29;92.04;99701.63;5035943;28;20386;-65
2023/09/30 05:23:32;;;;;;;21.25;12.90;;;;;;;17.40;91.89;99703.75;5052482;28;20051;-65
2023/09/30 05:26:00;;;;;;;20.77;12.40;;;;;;;17.46;91.21;99699.47;5053600;28;20132;-65
2023/09/30 05:28:27;;;;;;;26.17;13.88;;;;;;;17.51;90.89;99697.00;5036242;28;20068;-65
2023/09/30 05:30:53;;;;;;;21.80;12.73;;;;;;;17.63;90.87;99706.13;5052505;28;20044;-65
2023/09/30 05:33:19;;;;;;;25.88;13.15;;;;;;;17.63;90.52;99698.91;5035631;28;20037;-65
2023/09/30 05:35:44;;;;;;;28.60;13.20;;;;;;;17.70;90.18;99701.59;5052675;28;20041;-65
2023/09/30 05:38:10;;;;;;;24.65;12.80;;;;;;;17.77;89.91;99697.09;5053328;28;20041;-65
2023/09/30 05:40:36;;;;;;;28.70;13.35;;;;;;;17.81;89.94;99695.66;5052363;28;20478;-66
2023/09/30 05:43:02;;;;;;;21.13;12.48;;;;;;;17.92;89.35;99703.13;5003562;28;20044;-65
2023/09/30 05:45:35;;;;;;;21.85;12.95;;;;;;;18.14;88.98;99702.75;5046894;28;20041;-65
2023/09/30 05:48:04;;;;;;;25.77;13.23;;;;;;;18.13;88.12;99695.72;5040691;28;20052;-65
2023/09/30 05:50:33;;;;;;;27.15;14.27;;;;;;;18.26;87.96;99701.13;5024445;28;20048;-65
2023/09/30 05:53:00;;;;;;;22.83;13.15;;;;;;;18.25;87.21;99694.06;5041178;28;20124;-65
2023/09/30 05:55:26;;;;;;;24.73;13.82;;;;;;;18.26;87.23;99694.91;5039702;28;20032;-66
2023/09/30 05:57:52;;;;;;;33.78;14.20;;;;;;;18.25;87.46;99694.06;5040797;28;20042;-65
2023/09/30 06:00:30;;;;;;;28.02;14.82;;;;;;;18.31;87.61;99692.44;5024122;28;20063;-65
2023/09/30 06:02:57;;;;;;;28.40;15.07;;;;;;;18.39;87.19;99684.19;5041417;28;20468;-65
2023/09/30 06:05:23;;;;;;;31.02;14.85;;;;;;;18.48;86.38;99688.34;5023498;28;20128;-65
2023/09/30 06:07:50;;;;;;;31.85;15.40;;;;;;;18.60;86.41;99689.38;5042165;28;20115;-66
2023/09/30 06:10:18;;;;;;;29.38;14.50;;;;;;;18.71;85.70;99687.91;5007198;28;20041;-67
2023/09/30 06:12:49;;;;;;;29.60;15.18;;;;;;;18.92;85.49;99683.09;5016470;28;20049;-65
2023/09/30 06:15:16;;;;;;;27.98;15.35;;;;;;;19.00;84.72;99692.81;5044698;28;20519;-66
2023/09/30 06:17:42;;;;;;;28.52;15.48;;;;;;;19.12;84.35;99681.19;5042792;28;20060;-65
2023/09/30 06:20:15;;;;;;;22.02;14.70;;;;;;;19.18;83.65;99690.28;5024851;28;20060;-66
2023/09/30 06:22:45;;;;;;;23.95;15.75;;;;;;;19.45;83.41;99678.41;5042081;28;20521;-67
2023/09/30 06:25:13;;;;;;;23.33;15.77;;;;;;;19.55;82.93;99684.16;5060846;28;20475;-66
2023/09/30 06:27:39;;;;;;;30.17;15.00;;;;;;;19.66;82.61;99683.50;5059149;28;20059;-66
2023/09/30 06:30:05;;;;;;;28.88;16.30;;;;;;;19.69;82.51;99686.59;5058517;28;20037;-65
2023/09/30 06:32:31;;;;;;;28.98;15.50;;;;;;;19.70;82.74;99682.00;5038811;28;20069;-66
2023/09/30 06:34:57;;;;;;;26.25;14.48;;;;;;;19.80;82.96;99679.69;5034164;28;20083;-69
2023/09/30 06:37:23;;;;;;;25.85;15.13;;;;;;;19.84;82.84;99665.56;5017958;28;20049;-66
2023/09/30 06:39:49;;;;;;;28.98;14.73;;;;;;;19.96;82.97;99668.38;5017689;28;20052;-66
2023/09/30 06:42:16;;;;;;;27.88;13.68;;;;;;;20.16;82.35;99668.28;5050845;28;20053;-66
2023/09/30 06:44:42;;;;;;;27.13;14.23;;;;;;;20.67;80.59;99661.63;5017792;28;20506;-66
2023/09/30 06:47:12;;;;;;;32.70;13.63;;;;;;;21.21;78.00;99669.81;5024934;28;20037;-67
2023/09/30 06:49:39;;;;;;;30.25;14.20;;;;;;;21.76;75.76;99665.16;5041907;28;20040;-66
2023/09/30 06:52:05;;;;;;;28.13;13.18;;;;;;;22.07;73.78;99670.34;5041515;28;20044;-66
2023/09/30 06:54:31;;;;;;;28.50;13.48;;;;;;;22.28;72.49;99671.69;5039129;28;20060;-65
2023/09/30 06:56:57;;;;;;;21.25;12.98;;;;;;;-141.23;100.00;62281.09;5006433;28;20040;-66
2023/09/30 06:59:25;;;;;;;26.08;13.10;;;;;;;-141.23;100.00;62281.09;5021257;28;20060;-67
2023/09/30 07:01:51;;;;;;;21.77;13.32;;;;;;;22.55;70.68;99664.81;5023511;28;20040;-66
2023/09/30 07:04:17;;;;;;;25.27;13.43;;;;;;;22.56;70.11;99664.56;5039794;28;20060;-67
2023/09/30 07:06:43;;;;;;;23.80;13.88;;;;;;;22.75;69.96;99670.69;5021752;28;20103;-66
2023/09/30 07:09:10;;;;;;;31.58;14.23;;;;;;;23.36;67.69;99670.19;5031283;28;20448;-66
2023/09/30 07:11:36;;;;;;;30.05;13.02;;;;;;;24.44;64.37;99664.41;5014442;28;20037;-66
2023/09/30 07:14:02;;;;;;;28.75;12.90;;;;;;;26.65;57.74;99660.91;5030598;28;20131;-66
2023/09/30 07:16:28;;;;;;;25.65;13.07;;;;;;;28.66;49.94;99663.25;5030633;28;20049;-67
2023/09/30 07:18:55;;;;;;;23.20;11.82;;;;;;;30.80;44.17;99653.47;5030076;28;20041;-66
2023/09/30 07:21:20;;;;;;;23.80;13.57;;;;;;;32.53;38.22;99664.44;5030597;28;20038;-67
2023/09/30 07:23:47;;;;;;;26.00;13.68;;;;;;;33.73;34.41;99666.00;4997673;28;20083;-66
2023/09/30 07:26:14;;;;;;;25.42;12.15;;;;;;;34.32;31.76;99651.97;5029624;28;20445;-66
2023/09/30 07:28:40;;;;;;;28.70;12.15;;;;;;;35.10;29.86;99654.13;5039039;28;20048;-66
2023/09/30 07:31:06;;;;;;;19.73;10.93;;;;;;;35.40;28.45;99653.28;5037884;28;20399;-67
2023/09/30 07:33:32;;;;;;;14.65;10.48;;;;;;;36.01;27.52;99663.34;5018888;28;20141;-67
2023/09/30 07:35:58;;;;;;;19.92;11.18;;;;;;;36.65;25.83;99649.34;5029453;28;20045;-67
2023/09/30 07:38:24;;;;;;;19.42;9.57;;;;;;;37.11;25.07;99641.06;5017577;28;20041;-67
2023/09/30 07:40:50;;;;;;;21.35;8.65;;;;;;;38.26;23.38;99638.59;5050205;28;20045;-67
2023/09/30 07:43:17;;;;;;;18.23;8.23;;;;;;;39.31;22.09;99627.66;5051494;28;20041;-66
2023/09/30 07:45:44;;;;;;;16.63;8.13;;;;;;;40.23;20.36;99636.88;5050591;28;20163;-66
2023/09/30 07:48:10;;;;;;;16.00;7.75;;;;;;;40.96;19.15;99635.41;5050265;28;20044;-68
2023/09/30 07:50:37;;;;;;;14.07;6.63;;;;;;;41.49;18.43;99631.97;5051489;28;20032;-66
2023/09/30 07:53:03;;;;;;;15.45;7.70;;;;;;;41.95;17.78;99632.28;5049586;28;20403;-66
2023/09/30 07:55:30;;;;;;;12.40;6.30;;;;;;;41.85;17.28;99632.81;5044759;28;20061;-66
2023/09/30 07:57:59;;;;;;;15.88;7.35;;;;;;;42.57;16.92;99626.38;5032376;28;20037;-68
2023/09/30 08:00:25;;;;;;;16.60;6.35;;;;;;;43.56;15.19;99632.56;5017162;28;20095;-66
2023/09/30 08:02:51;;;;;;;22.80;7.10;;;;;;;-141.23;100.00;62281.09;5049620;28;20041;-67
2023/09/30 08:05:17;;;;;;;12.13;5.50;;;;;;;-141.23;100.00;62281.09;5033603;28;20110;-68
2023/09/30 08:07:43;;;;;;;13.07;5.35;;;;;;;-141.23;100.00;62281.09;5033138;28;20037;-67
2023/09/30 08:10:16;;;;;;;15.00;6.28;;;;;;;-141.23;100.00;62281.09;5050538;28;20128;-67
2023/09/30 08:12:49;;;;;;;15.32;6.07;;;;;;;-141.23;100.00;62281.09;5017510;28;20094;-68
2023/09/30 08:15:16;;;;;;;13.88;6.00;;;;;;;-141.23;100.00;62281.09;5048257;28;20064;-66
2023/09/30 08:17:42;;;;;;;20.90;6.25;;;;;;;-141.23;100.00;62281.09;5053475;28;20041;-66
2023/09/30 08:20:11;;;;;;;16.65;5.57;;;;;;;-141.23;100.00;62281.09;5052271;28;20052;-66
2023/09/30 08:22:37;;;;;;;14.38;5.00;;;;;;;-141.23;100.00;62281.09;4999791;28;20124;-67
2023/09/30 08:25:06;;;;;;;12.95;5.65;;;;;;;-141.23;100.00;62281.09;5016719;28;20053;-67
2023/09/30 08:27:32;;;;;;;13.25;5.60;;;;;;;-141.23;100.00;62281.09;5000234;28;20373;-67
2023/09/30 08:29:58;;;;;;;14.23;5.00;;;;;;;-141.23;100.00;62281.09;5000163;28;20056;-66
2023/09/30 08:32:24;;;;;;;9.20;4.60;;;;;;;-141.23;100.00;62281.09;5000164;28;20052;-67
2023/09/30 08:34:50;;;;;;;8.95;4.82;;;;;;;-141.23;100.00;62281.09;5016161;28;20571;-67
2023/09/30 08:37:17;;;;;;;12.70;4.82;;;;;;;-141.23;100.00;62281.09;5032822;28;20099;-66
2023/09/30 08:39:43;;;;;;;14.45;4.85;;;;;;;-141.23;100.00;62281.09;4999772;28;20439;-67
2023/09/30 08:42:11;;;;;;;13.88;5.10;;;;;;;-141.23;100.00;62281.09;5032819;28;20045;-66
2023/09/30 08:44:39;;;;;;;10.35;5.20;;;;;;;-141.23;100.00;62281.09;5016439;28;20099;-66
2023/09/30 08:47:08;;;;;;;10.73;5.03;;;;;;;-141.23;100.00;62281.09;5000014;28;20479;-66
2023/09/30 08:49:43;;;;;;;10.93;4.97;;;;;;;-141.23;100.00;62281.09;4957572;28;20050;-67
2023/09/30 08:52:10;;;;;;;14.57;4.72;;;;;;;-141.23;100.00;62281.09;4974061;28;20046;-68
2023/09/30 08:54:36;;;;;;;9.23;4.43;;;;;;;-141.23;100.00;62281.09;4957894;28;20054;-66
2023/09/30 08:57:04;;;;;;;9.68;4.20;;;;;;;-141.23;100.00;62281.09;4941777;28;20038;-66
2023/09/30 08:59:32;;;;;;;17.25;4.72;;;;;;;-141.23;100.00;62281.09;4937750;28;20152;-66
2023/09/30 09:01:58;;;;;;;12.50;4.57;;;;;;;-141.23;100.00;62281.09;4980562;28;20390;-66
2023/09/30 09:04:26;;;;;;;13.48;5.10;;;;;;;-141.23;100.00;62281.09;4979948;28;20479;-65
2023/09/30 09:07:17;;;;;;;11.80;5.70;;;;;;;-141.23;100.00;62281.09;4961132;28;20133;-66
2023/09/30 09:10:04;;;;;;;12.30;4.68;;;;;;;-141.23;100.00;62281.09;4941683;28;20485;-66
2023/09/30 09:12:37;;;;;;;13.60;4.60;;;;;;;-141.23;100.00;62281.09;4926326;28;20047;-67
2023/09/30 09:15:06;;;;;;;12.93;4.63;;;;;;;-141.23;100.00;62281.09;4926294;28;20063;-66
2023/09/30 09:17:44;;;;;;;12.40;4.85;;;;;;;-141.23;100.00;62281.09;4919480;29;20102;-66
2023/09/30 09:20:21;;;;;;;13.23;4.68;;;;;;;-141.23;100.00;62281.09;4934959;29;20063;-67
2023/09/30 09:22:53;;;;;;;13.32;4.80;;;;;;;-141.23;100.00;62281.09;4934938;29;20380;-66
2023/09/30 09:25:22;;;;;;;13.20;4.60;;;;;;;-141.23;100.00;62281.09;4934276;29;20131;-66
2023/09/30 09:27:50;;;;;;;8.38;4.75;;;;;;;-141.23;100.00;62281.09;4982832;28;20046;-66
2023/09/30 09:30:27;;;;;;;9.07;4.65;;;;;;;-141.23;100.00;62281.09;4959968;28;20050;-66
2023/09/30 09:32:57;;;;;;;12.38;4.80;;;;;;;-141.23;100.00;62281.09;4975777;28;20140;-66
2023/09/30 09:35:25;;;;;;;15.90;4.90;;;;;;;-141.23;100.00;62281.09;4976240;28;20057;-69
2023/09/30 09:38:02;;;;;;;10.82;4.70;;;;;;;-141.23;100.00;62281.09;4996226;28;20064;-69
2023/09/30 09:40:29;;;;;;;7.65;4.32;;;;;;;-141.23;100.00;62281.09;4959581;28;20136;-69
2023/09/30 09:42:56;;;;;;;11.00;4.80;;;;;;;-141.23;100.00;62281.09;4974685;28;20175;-68
2023/09/30 09:45:24;;;;;;;15.35;5.35;;;;;;;-141.23;100.00;62281.09;4973984;28;20457;-68
2023/09/30 09:47:51;;;;;;;12.25;5.03;;;;;;;-141.23;100.00;62281.09;4967971;28;20053;-68
2023/09/30 09:50:19;;;;;;;12.48;5.25;;;;;;;-141.23;100.00;62281.09;4996844;28;20096;-68
2023/09/30 09:52:50;;;;;;;10.23;4.80;;;;;;;-141.23;100.00;62281.09;5012980;28;20046;-68
2023/09/30 09:55:19;;;;;;;14.82;4.95;;;;;;;-141.23;100.00;62281.09;5031174;28;20174;-68
2023/09/30 09:57:46;;;;;;;11.07;4.95;;;;;;;-141.23;100.00;62281.09;5014644;28;20042;-68
2023/09/30 10:00:20;;;;;;;10.63;5.20;;;;;;;-141.23;100.00;62281.09;4981941;28;20057;-68
2023/09/30 10:02:46;;;;;;;7.20;4.43;;;;;;;-141.23;100.00;62281.09;5031111;28;20522;-68
2023/09/30 10:05:14;;;;;;;12.65;4.68;;;;;;;-141.23;100.00;62281.09;5014818;28;20080;-69
2023/09/30 10:08:02;;;;;;;12.60;4.50;;;;;;;-141.23;100.00;62281.09;5014552;28;20132;-68
2023/09/30 10:10:28;;;;;;;11.57;4.97;;;;;;;-141.23;100.00;62281.09;5016586;28;20168;-68
2023/09/30 10:12:54;;;;;;;8.23;5.03;;;;;;;-141.23;100.00;62281.09;5018864;28;20041;-68
2023/09/30 10:15:26;;;;;;;7.47;4.65;;;;;;;-141.23;100.00;62281.09;5018695;28;20452;-68
2023/09/30 10:18:12;;;;;;;15.55;4.80;;;;;;;-141.23;100.00;62281.09;5053243;28;20060;-69
2023/09/30 10:20:44;;;;;;;8.25;4.43;;;;;;;-141.23;100.00;62281.09;5051784;28;20056;-68
2023/09/30 10:23:21;;;;;;;9.85;4.95;;;;;;;-141.23;100.00;62281.09;5018925;28;20098;-68
2023/09/30 10:25:57;;;;;;;11.93;5.32;;;;;;;-141.23;100.00;62281.09;5051038;28;20048;-69
2023/09/30 10:28:50;;;;;;;10.18;5.18;;;;;;;-141.23;100.00;62281.09;5051296;28;20045;-68
2023/09/30 10:31:24;;;;;;;6.85;4.70;;;;;;;-141.23;100.00;62281.09;5019381;28;20364;-69
2023/09/30 10:34:00;;;;;;;13.60;5.07;;;;;;;-141.23;100.00;62281.09;5068040;28;20076;-69
2023/09/30 10:36:34;;;;;;;11.10;5.05;;;;;;;-141.23;100.00;62281.09;5051299;28;20040;-69
2023/09/30 10:39:02;;;;;;;12.00;5.85;;;;;;;-141.23;100.00;62281.09;5051022;28;20049;-69
2023/09/30 10:42:01;;;;;;;15.32;5.50;;;;;;;-141.23;100.00;62281.09;5018140;28;20386;-69
2023/09/30 10:44:31;;;;;;;11.77;5.27;;;;;;;-141.23;100.00;62281.09;4986180;28;20402;-69
2023/09/30 10:46:58;;;;;;;15.27;5.28;;;;;;;-141.23;100.00;62281.09;5033204;28;20287;-69
2023/09/30 10:49:24;;;;;;;10.98;5.75;;;;;;;-141.23;100.00;62281.09;5033247;28;20053;-68
2023/09/30 10:51:57;;;;;;;10.65;5.30;;;;;;;-141.23;100.00;62281.09;5000282;28;20041;-69
2023/09/30 10:54:25;;;;;;;16.58;5.30;;;;;;;-141.23;100.00;62281.09;5000045;28;20090;-69
2023/09/30 10:56:55;;;;;;;13.63;5.43;;;;;;;-141.23;100.00;62281.09;4974295;28;20058;-69
2023/09/30 10:59:24;;;;;;;7.43;5.20;;;;;;;-141.23;100.00;62281.09;4958107;28;20116;-68
2023/09/30 11:01:53;;;;;;;14.35;5.43;;;;;;;-141.23;100.00;62281.09;4974826;28;20054;-68
2023/09/30 11:04:20;;;;;;;13.27;4.95;;;;;;;-141.23;100.00;62281.09;4957508;28;20046;-70
2023/09/30 11:06:46;;;;;;;10.68;5.13;;;;;;;-141.23;100.00;62281.09;4926409;28;20054;-69
2023/09/30 11:09:17;;;;;;;11.50;5.45;;;;;;;-141.23;100.00;62281.09;4958318;28;20396;-69
2023/09/30 11:11:52;;;;;;;14.30;5.50;;;;;;;-141.23;100.00;62281.09;4942077;28;20046;-69
2023/09/30 11:14:29;;;;;;;14.80;5.18;;;;;;;-141.23;100.00;62281.09;4975102;28;20050;-69
2023/09/30 11:17:01;;;;;;;15.00;5.63;;;;;;;-141.23;100.00;62281.09;4959381;28;20042;-69
2023/09/30 11:19:34;;;;;;;12.85;5.07;;;;;;;-141.23;100.00;62281.09;4976770;28;20107;-69
2023/09/30 11:22:00;;;;;;;14.82;5.60;;;;;;;-141.23;100.00;62281.09;4976866;28;20061;-69